This is the latest recevied weather packets stored in our database for station/object IZ5ILU-16. If no packets are shown the sender has not sent any weather packets the latest 10 day(s).
| Time | Temp. | Humidity | Pressure | Rain* | Wind** | Luminosity | Snow |
|---|---|---|---|---|---|---|---|
| 1787751942 | 30° C | 54% | 1015.8 hPa | 0 mm | - | - | - |
| 1787751342 | 29.44° C | 57% | 1015.8 hPa | 0 mm | - | - | - |
| 1787750742 | 29.44° C | 53% | 1015.8 hPa | 0 mm | - | - | - |
| 1787750142 | 29.44° C | 54% | 1015.9 hPa | 0 mm | - | - | - |
| 1787749542 | 28.89° C | 57% | 1016 hPa | 0 mm | - | - | - |
| 1787748942 | 28.89° C | 56% | 1016.1 hPa | 0 mm | - | - | - |
| 1787748342 | 28.89° C | 57% | 1016.3 hPa | 0 mm | - | - | - |
| 1787747742 | 28.33° C | 59% | 1016.3 hPa | 0 mm | - | - | - |
| 1787747142 | 28.33° C | 61% | 1016.5 hPa | 0 mm | - | - | - |
| 1787746542 | 27.78° C | 65% | 1016.5 hPa | 0 mm | - | - | - |
| 1787745942 | 27.22° C | 66% | 1016.6 hPa | 0 mm | - | - | - |
| 1787745342 | 27.78° C | 64% | 1016.6 hPa | 0 mm | - | - | - |
| 1787744742 | 27.22° C | 66% | 1016.6 hPa | 0 mm | - | - | - |
| 1787744142 | 27.22° C | 66% | 1016.7 hPa | 0 mm | - | - | - |
| 1787743542 | 27.22° C | 65% | 1016.7 hPa | 0 mm | - | - | - |
| 1787742942 | 27.22° C | 66% | 1016.7 hPa | 0 mm | - | - | - |
| 1787742342 | 27.22° C | 66% | 1016.9 hPa | 0 mm | - | - | - |
| 1787741742 | 26.67° C | 69% | 1017.1 hPa | 0 mm | - | - | - |
| 1787741142 | 26.67° C | 67% | 1017.1 hPa | 0 mm | - | - | - |
| 1787740542 | 26.67° C | 67% | 1017.1 hPa | 0 mm | - | - | - |
| 1787739942 | 26.67° C | 67% | 1017.5 hPa | 0 mm | - | - | - |
| 1787739342 | 26.11° C | 69% | 1017.5 hPa | 0 mm | - | - | - |
| 1787738742 | 26.11° C | 68% | 1017.6 hPa | 0 mm | - | - | - |
| 1787738142 | 26.67° C | 67% | 1017.7 hPa | 0 mm | - | - | - |
| 1787737542 | 26.11° C | 71% | 1017.7 hPa | 0 mm | - | - | - |
* Rain latest hour (hover to see other rain measurements)
** Current wind speed in m/s (hover to see current wind gust speed)